Seabourn Legend — C6FR6 — position and weather

sailwx.info

Track history (hours):
 
Tides and Currents Weather Stations Pressure Air Temp Water Temp Dewpoint Dewpoint Depression Visibility Wind Speed Wind Dir Waves Ship Positions

Seabourn Legend

Operator: Cunard Seabourn

Last reported at 2017-Mar-23 11:33 UTC. Time now 2017-Mar-23 12:16 UTC.
Position N 18°25' W 064°45'.

Length 135 m; draft 5.5 m.

Type: Passenger vessel. MMSI: 311085000.

Date/timePositionNaut miles runAvg speedWind from/ knotsBaromVisibWave heightAir tempDewpointWater temp
2017-Mar-23 11:33N 18°25' W 064°45'10 9.9
2017-Mar-23 10:33N 18°32' W 064°36'1110.8
2017-Mar-23 09:32N 18°35' W 064°25'1211.6
2017-Mar-23 08:33N 18°30' W 064°14'133 4.4
2017-Mar-22 02:33N 17°15' W 062°20'1010.1
2017-Mar-22 01:33N 17°06' W 062°16'1010.0
2017-Mar-22 00:33N 16°56' W 062°11'1010.2
2017-Mar-21 23:33N 16°47' W 062°07'8 8.2
2017-Mar-21 22:33N 16°39' W 062°09'9 8.9
2017-Mar-21 21:33N 16°44' W 062°16'5 5.0
2017-Mar-21 20:28N 16°48' W 062°13'0 0.0
2017-Mar-21 19:28N 16°48' W 062°13'0 0.0
2017-Mar-21 18:28N 16°48' W 062°13'0 0.0
2017-Mar-21 17:27N 16°48' W 062°13'0 0.0
2017-Mar-21 16:27N 16°48' W 062°13'0 0.0
2017-Mar-21 15:32N 16°48' W 062°13'0 0.0
2017-Mar-21 14:32N 16°48' W 062°13'0 0.0
2017-Mar-21 13:07N 16°48' W 062°13'0 0.0
2017-Mar-21 12:28N 16°48' W 062°13'0 0.2
2017-Mar-21 11:31N 16°48' W 062°13'7 7.0
2017-Mar-21 10:33N 16°55' W 062°14'7 7.2
2017-Mar-21 09:33N 17°02' W 062°17'7 7.3
2017-Mar-21 08:33N 17°08' W 062°19'8 7.5
2017-Mar-21 07:30N 17°16' W 062°21'7 7.3
2017-Mar-21 06:32N 17°22' W 062°25'8 7.5
2017-Mar-21 05:32N 17°28' W 062°30'138 4.7
2017-Mar-20 00:19N 18°09' W 064°49'72 3.6
2017-Mar-19 04:33N 18°31' W 066°01'7 7.1
2017-Mar-19 03:33N 18°28' W 066°08'1 1.2
2017-Mar-19 02:33N 18°28' W 066°07'0 0.0
2017-Mar-19 01:33N 18°28' W 066°07'0 0.0
2017-Mar-19 00:27N 18°28' W 066°07'0 0.0
2017-Mar-18 23:32N 18°28' W 066°07'0 0.0
2017-Mar-18 22:11N 18°28' W 066°07'0 0.0
2017-Mar-18 16:34N 18°28' W 066°07'0 0.0
2017-Mar-18 15:33N 18°28' W 066°07'0 0.0
2017-Mar-18 14:34N 18°28' W 066°07'0 0.0
2017-Mar-18 13:33N 18°28' W 066°07'0 0.0
2017-Mar-18 12:33N 18°28' W 066°07'0 0.0
2017-Mar-18 11:34N 18°28' W 066°07'1 0.7
2017-Mar-18 10:14N 18°28' W 066°08'8 7.8
2017-Mar-18 09:11N 18°32' W 066°00'57 7.4
2017-Mar-18 01:24N 18°34' W 064°60'7 7.8
2017-Mar-18 00:33N 18°33' W 064°53'8 7.6
2017-Mar-17 23:33N 18°33' W 064°45'8 7.6
2017-Mar-17 22:33N 18°32' W 064°37'10 9.2
2017-Mar-17 21:30N 18°32' W 064°26'4 0.4
2017-Mar-17 10:19N 18°36' W 064°26'6 7.3
2017-Mar-17 09:33N 18°39' W 064°32'7 7.1
2017-Mar-17 08:31N 18°42' W 064°38'7 6.9
2017-Mar-17 07:33N 18°43' W 064°45'7 6.7
2017-Mar-17 06:33N 18°38' W 064°50'7 7.3
2017-Mar-17 05:32N 18°31' W 064°52'6 6.6
2017-Mar-17 04:33N 18°25' W 064°51'6 5.7
2017-Mar-17 03:33N 18°26' W 064°45'0 0.0
2017-Mar-17 02:30N 18°26' W 064°45'0 0.0
2017-Mar-17 01:24N 18°26' W 064°45'0 0.0
2017-Mar-17 00:29N 18°26' W 064°45'0 0.0
2017-Mar-16 23:29N 18°26' W 064°45'0 0.0
2017-Mar-16 22:28N 18°26' W 064°45'0 0.0
2017-Mar-16 21:04N 18°26' W 064°45'0 0.1
2017-Mar-16 20:21N 18°26' W 064°45'0 0.0
2017-Mar-16 19:33N 18°26' W 064°45'0 0.0
2017-Mar-16 18:33N 18°26' W 064°45'0 0.0
2017-Mar-16 17:32N 18°26' W 064°45'0 0.0
2017-Mar-16 16:32N 18°26' W 064°45'0 0.0
2017-Mar-16 15:31N 18°26' W 064°45'0 0.0
2017-Mar-16 14:25N 18°26' W 064°45'0 0.0
2017-Mar-16 13:18N 18°26' W 064°45'0 0.0
2017-Mar-16 12:06N 18°26' W 064°45'0 0.0
2017-Mar-16 11:34N 18°26' W 064°45'8 8.2
2017-Mar-16 10:34N 18°30' W 064°38'1312.7
2017-Mar-16 09:31N 18°35' W 064°24'1313.2
2017-Mar-16 08:34N 18°29' W 064°13'  
Track history (hours):
 
Tides and Currents Weather Stations Pressure Air Temp Water Temp Dewpoint Dewpoint Depression Visibility Wind Speed Wind Dir Waves Ship Positions

Seabourn Legend

Operator: Cunard Seabourn

Last reported at 2017-Mar-23 11:33 UTC. Time now 2017-Mar-23 12:16 UTC.
Position N 18°25' W 064°45'.

Length 135 m; draft 5.5 m.

Type: Passenger vessel. MMSI: 311085000.

Date/timePositionNaut miles runAvg speedWind from/ knotsBaromVisibWave heightAir tempDewpointWater temp
2017-Mar-23 11:33N 18°25' W 064°45'10 9.9
2017-Mar-23 10:33N 18°32' W 064°36'1110.8
2017-Mar-23 09:32N 18°35' W 064°25'1211.6
2017-Mar-23 08:33N 18°30' W 064°14'133 4.4
2017-Mar-22 02:33N 17°15' W 062°20'1010.1
2017-Mar-22 01:33N 17°06' W 062°16'1010.0
2017-Mar-22 00:33N 16°56' W 062°11'1010.2
2017-Mar-21 23:33N 16°47' W 062°07'8 8.2
2017-Mar-21 22:33N 16°39' W 062°09'9 8.9
2017-Mar-21 21:33N 16°44' W 062°16'5 5.0
2017-Mar-21 20:28N 16°48' W 062°13'0 0.0
2017-Mar-21 19:28N 16°48' W 062°13'0 0.0
2017-Mar-21 18:28N 16°48' W 062°13'0 0.0
2017-Mar-21 17:27N 16°48' W 062°13'0 0.0
2017-Mar-21 16:27N 16°48' W 062°13'0 0.0
2017-Mar-21 15:32N 16°48' W 062°13'0 0.0
2017-Mar-21 14:32N 16°48' W 062°13'0 0.0
2017-Mar-21 13:07N 16°48' W 062°13'0 0.0
2017-Mar-21 12:28N 16°48' W 062°13'0 0.2
2017-Mar-21 11:31N 16°48' W 062°13'7 7.0
2017-Mar-21 10:33N 16°55' W 062°14'7 7.2
2017-Mar-21 09:33N 17°02' W 062°17'7 7.3
2017-Mar-21 08:33N 17°08' W 062°19'8 7.5
2017-Mar-21 07:30N 17°16' W 062°21'7 7.3
2017-Mar-21 06:32N 17°22' W 062°25'8 7.5
2017-Mar-21 05:32N 17°28' W 062°30'138 4.7
2017-Mar-20 00:19N 18°09' W 064°49'72 3.6
2017-Mar-19 04:33N 18°31' W 066°01'7 7.1
2017-Mar-19 03:33N 18°28' W 066°08'1 1.2
2017-Mar-19 02:33N 18°28' W 066°07'0 0.0
2017-Mar-19 01:33N 18°28' W 066°07'0 0.0
2017-Mar-19 00:27N 18°28' W 066°07'0 0.0
2017-Mar-18 23:32N 18°28' W 066°07'0 0.0
2017-Mar-18 22:11N 18°28' W 066°07'0 0.0
2017-Mar-18 16:34N 18°28' W 066°07'0 0.0
2017-Mar-18 15:33N 18°28' W 066°07'0 0.0
2017-Mar-18 14:34N 18°28' W 066°07'0 0.0
2017-Mar-18 13:33N 18°28' W 066°07'0 0.0
2017-Mar-18 12:33N 18°28' W 066°07'0 0.0
2017-Mar-18 11:34N 18°28' W 066°07'1 0.7
2017-Mar-18 10:14N 18°28' W 066°08'8 7.8
2017-Mar-18 09:11N 18°32' W 066°00'57 7.4
2017-Mar-18 01:24N 18°34' W 064°60'7 7.8
2017-Mar-18 00:33N 18°33' W 064°53'8 7.6
2017-Mar-17 23:33N 18°33' W 064°45'8 7.6
2017-Mar-17 22:33N 18°32' W 064°37'10 9.2
2017-Mar-17 21:30N 18°32' W 064°26'4 0.4
2017-Mar-17 10:19N 18°36' W 064°26'6 7.3
2017-Mar-17 09:33N 18°39' W 064°32'7 7.1
2017-Mar-17 08:31N 18°42' W 064°38'7 6.9
2017-Mar-17 07:33N 18°43' W 064°45'7 6.7
2017-Mar-17 06:33N 18°38' W 064°50'7 7.3
2017-Mar-17 05:32N 18°31' W 064°52'6 6.6
2017-Mar-17 04:33N 18°25' W 064°51'6 5.7
2017-Mar-17 03:33N 18°26' W 064°45'0 0.0
2017-Mar-17 02:30N 18°26' W 064°45'0 0.0
2017-Mar-17 01:24N 18°26' W 064°45'0 0.0
2017-Mar-17 00:29N 18°26' W 064°45'0 0.0
2017-Mar-16 23:29N 18°26' W 064°45'0 0.0
2017-Mar-16 22:28N 18°26' W 064°45'0 0.0
2017-Mar-16 21:04N 18°26' W 064°45'0 0.1
2017-Mar-16 20:21N 18°26' W 064°45'0 0.0
2017-Mar-16 19:33N 18°26' W 064°45'0 0.0
2017-Mar-16 18:33N 18°26' W 064°45'0 0.0
2017-Mar-16 17:32N 18°26' W 064°45'0 0.0
2017-Mar-16 16:32N 18°26' W 064°45'0 0.0
2017-Mar-16 15:31N 18°26' W 064°45'0 0.0
2017-Mar-16 14:25N 18°26' W 064°45'0 0.0
2017-Mar-16 13:18N 18°26' W 064°45'0 0.0
2017-Mar-16 12:06N 18°26' W 064°45'0 0.0
2017-Mar-16 11:34N 18°26' W 064°45'8 8.2
2017-Mar-16 10:34N 18°30' W 064°38'1312.7
2017-Mar-16 09:31N 18°35' W 064°24'1313.2
2017-Mar-16 08:34N 18°29' W 064°13'  

Dump ship's entire track history